Time;durP1;ratioP1;P1;durP2;ratioP2;P2;SDS_P1;SDS_P2;PMS_P1;PMS_P2;Temp;Humidity;BMP_temperature;BMP_pressure;BME280_temperature;BME280_humidity;BME280_pressure;Samples;Min_cycle;Max_cycle;Signal;HPM_P1;HPM_P2
2021/03/15 00:01:09;;;;;;;10.13;6.68;;;3.30;99.90;;;;;;5054338;28;20183;-77
2021/03/15 00:03:35;;;;;;;9.10;6.75;;;3.30;99.90;;;;;;5054552;28;20072;-77
2021/03/15 00:06:01;;;;;;;10.25;6.53;;;3.20;99.90;;;;;;5054732;28;20063;-76
2021/03/15 00:08:28;;;;;;;8.75;6.25;;;3.20;99.90;;;;;;5055629;28;20124;-76
2021/03/15 00:10:54;;;;;;;11.13;7.07;;;3.10;99.90;;;;;;5055162;28;20175;-77
2021/03/15 00:13:20;;;;;;;8.90;6.60;;;3.10;99.90;;;;;;5056596;28;20497;-76
2021/03/15 00:15:47;;;;;;;10.07;6.43;;;3.20;99.90;;;;;;5058155;28;20028;-76
2021/03/15 00:18:12;;;;;;;8.60;6.47;;;3.10;99.90;;;;;;5058148;28;20020;-76
2021/03/15 00:20:38;;;;;;;9.30;6.80;;;3.10;99.90;;;;;;5058044;28;20496;-76
2021/03/15 00:23:04;;;;;;;10.65;6.95;;;3.10;99.90;;;;;;5057952;28;20025;-76
2021/03/15 00:25:30;;;;;;;10.10;6.85;;;3.10;99.90;;;;;;5057993;28;20078;-76
2021/03/15 00:27:56;;;;;;;8.57;5.82;;;3.10;99.90;;;;;;5058000;28;20028;-76
2021/03/15 00:30:22;;;;;;;9.45;6.53;;;3.20;99.90;;;;;;5057849;28;20371;-75
2021/03/15 00:32:48;;;;;;;9.73;7.63;;;3.20;99.90;;;;;;5057704;28;20024;-76
2021/03/15 00:35:17;;;;;;;9.95;6.32;;;3.20;99.90;;;;;;5057821;28;20025;-76
2021/03/15 00:37:44;;;;;;;9.93;6.53;;;3.20;99.90;;;;;;5057669;28;20021;-76
2021/03/15 00:40:12;;;;;;;7.47;5.57;;;3.20;99.90;;;;;;5057660;28;20027;-76
2021/03/15 00:42:40;;;;;;;9.50;6.00;;;3.20;99.90;;;;;;5057552;28;20021;-76
2021/03/15 00:45:07;;;;;;;10.98;6.60;;;3.30;99.90;;;;;;5057608;28;20028;-76
2021/03/15 00:47:33;;;;;;;9.45;6.18;;;3.30;99.90;;;;;;5057829;28;20074;-76
2021/03/15 00:49:59;;;;;;;9.65;6.78;;;3.30;99.90;;;;;;5057609;28;20098;-76
2021/03/15 00:52:24;;;;;;;9.60;6.35;;;3.30;99.90;;;;;;5057328;28;20037;-76
2021/03/15 00:54:50;;;;;;;10.30;7.05;;;3.30;99.90;;;;;;5057468;28;20066;-76
2021/03/15 00:57:17;;;;;;;11.20;7.15;;;3.30;99.90;;;;;;5057453;28;20402;-76
2021/03/15 00:59:44;;;;;;;10.25;7.07;;;3.30;99.90;;;;;;5057275;28;20075;-76
2021/03/15 01:02:10;;;;;;;8.85;6.55;;;3.30;99.90;;;;;;5057029;28;20028;-76
2021/03/15 01:04:35;;;;;;;10.80;7.30;;;3.40;99.90;;;;;;5057209;28;20025;-76
2021/03/15 01:07:01;;;;;;;9.88;6.35;;;3.40;99.90;;;;;;5057500;28;20025;-76
2021/03/15 01:09:27;;;;;;;11.98;7.60;;;3.30;99.90;;;;;;5057141;28;20440;-76
2021/03/15 01:11:53;;;;;;;8.70;6.00;;;3.30;99.90;;;;;;5056920;28;20074;-76
2021/03/15 01:14:19;;;;;;;9.75;6.40;;;3.30;99.90;;;;;;5057099;28;20026;-76
2021/03/15 01:16:44;;;;;;;9.45;6.90;;;3.30;99.90;;;;;;5057037;28;20096;-76
2021/03/15 01:19:10;;;;;;;9.05;6.15;;;3.40;99.90;;;;;;5056959;28;20027;-77
2021/03/15 01:21:35;;;;;;;8.88;6.22;;;3.40;99.90;;;;;;5056932;28;20119;-76
2021/03/15 01:24:01;;;;;;;9.65;6.60;;;3.30;99.90;;;;;;5056339;28;20443;-76
2021/03/15 01:26:27;;;;;;;8.90;6.28;;;3.40;99.90;;;;;;5056790;28;20494;-76
2021/03/15 01:28:52;;;;;;;11.65;7.20;;;3.40;99.90;;;;;;5056765;28;20028;-76
2021/03/15 01:31:18;;;;;;;9.25;6.80;;;3.50;99.90;;;;;;5056495;28;20029;-76
2021/03/15 01:33:44;;;;;;;8.02;5.85;;;3.50;99.90;;;;;;5056718;28;20025;-76
2021/03/15 01:36:09;;;;;;;10.98;6.45;;;3.50;99.90;;;;;;5056636;28;20025;-76
2021/03/15 01:38:35;;;;;;;9.05;6.20;;;3.50;99.90;;;;;;5056689;28;20518;-76
2021/03/15 01:41:01;;;;;;;9.95;6.07;;;3.60;99.90;;;;;;5056531;28;20031;-76
2021/03/15 01:43:27;;;;;;;8.13;5.97;;;3.60;99.90;;;;;;5056539;28;20024;-76
2021/03/15 01:45:52;;;;;;;9.35;6.03;;;3.60;99.90;;;;;;5056445;28;20491;-77
2021/03/15 01:48:18;;;;;;;9.38;6.78;;;3.50;99.90;;;;;;5056451;28;20020;-76
2021/03/15 01:50:46;;;;;;;10.02;6.28;;;3.50;99.90;;;;;;5056198;28;20032;-76
2021/03/15 01:53:15;;;;;;;8.27;5.95;;;3.50;99.90;;;;;;5056190;28;20025;-76
2021/03/15 01:55:41;;;;;;;8.75;6.20;;;3.50;99.90;;;;;;5056263;28;20473;-76
2021/03/15 01:58:07;;;;;;;8.85;5.95;;;3.60;99.90;;;;;;5056246;28;20032;-76
2021/03/15 02:00:33;;;;;;;8.50;5.68;;;3.60;99.90;;;;;;5056060;28;20477;-76
2021/03/15 02:03:02;;;;;;;11.23;5.28;;;3.70;99.90;;;;;;5056160;28;20055;-76
2021/03/15 02:05:28;;;;;;;8.85;6.05;;;3.70;99.90;;;;;;5056004;28;20031;-76
2021/03/15 02:07:55;;;;;;;8.60;5.32;;;3.70;99.90;;;;;;5056159;28;20029;-76
2021/03/15 02:10:21;;;;;;;7.45;5.50;;;3.80;99.90;;;;;;5056066;28;20032;-77
2021/03/15 02:13:11;;;;;;;7.78;5.50;;;3.80;99.90;;;;;;5055790;28;20209;-76
2021/03/15 02:15:43;;;;;;;8.77;5.88;;;3.70;99.90;;;;;;5056060;28;20032;-76
2021/03/15 02:18:31;;;;;;;8.32;6.07;;;3.70;99.90;;;;;;5072494;28;20116;-76
2021/03/15 02:21:34;;;;;;;8.98;5.55;;;3.80;99.90;;;;;;5072431;28;20032;-77
2021/03/15 02:24:19;;;;;;;8.00;5.22;;;3.80;99.90;;;;;;5072363;28;20024;-76
2021/03/15 02:27:10;;;;;;;6.18;4.88;;;3.80;99.90;;;;;;5055647;28;20027;-76
2021/03/15 02:30:14;;;;;;;7.95;5.45;;;3.80;99.90;;;;;;5072262;28;20020;-76
2021/03/15 02:33:18;;;;;;;7.32;5.20;;;3.80;99.90;;;;;;5044621;28;20067;-76
2021/03/15 02:35:45;;;;;;;7.60;5.47;;;3.90;99.90;;;;;;4991495;28;20022;-76
2021/03/15 02:38:13;;;;;;;8.25;6.10;;;3.90;99.90;;;;;;4976215;28;20030;-76
2021/03/15 02:40:55;;;;;;;8.85;6.68;;;3.80;99.90;;;;;;5014852;28;20040;-77
2021/03/15 02:43:25;;;;;;;7.55;5.82;;;3.70;99.90;;;;;;5055431;28;20028;-76
2021/03/15 02:45:55;;;;;;;7.53;5.55;;;3.60;99.90;;;;;;5055313;28;20056;-76
2021/03/15 02:48:23;;;;;;;11.80;6.38;;;3.50;99.90;;;;;;5073546;28;20036;-76
2021/03/15 02:50:50;;;;;;;8.50;6.38;;;3.40;99.90;;;;;;5073221;28;20366;-76
2021/03/15 02:53:17;;;;;;;8.45;6.43;;;3.40;99.90;;;;;;5055315;28;20063;-75
2021/03/15 02:55:48;;;;;;;9.23;6.88;;;3.30;99.90;;;;;;5055227;28;20020;-76
2021/03/15 02:58:15;;;;;;;9.45;7.05;;;3.30;99.90;;;;;;5073543;28;20094;-76
2021/03/15 03:00:43;;;;;;;9.10;6.40;;;3.30;99.90;;;;;;5073110;28;20390;-75
2021/03/15 03:03:10;;;;;;;9.18;6.35;;;3.30;99.90;;;;;;5055088;28;20024;-75
2021/03/15 03:05:36;;;;;;;8.02;6.03;;;3.30;99.90;;;;;;5055086;28;20029;-75
2021/03/15 03:08:04;;;;;;;9.27;6.55;;;3.30;99.90;;;;;;5073247;28;20048;-76
2021/03/15 03:10:31;;;;;;;7.95;6.35;;;3.40;99.90;;;;;;5054951;28;20032;-76
2021/03/15 03:12:57;;;;;;;9.68;6.57;;;3.30;99.90;;;;;;5073078;28;20029;-76
2021/03/15 03:15:30;;;;;;;9.88;6.80;;;3.30;99.90;;;;;;5072913;28;20029;-75
2021/03/15 03:17:57;;;;;;;;;;;3.20;99.90;;;;;;5073545;28;20020;-76
2021/03/15 03:20:25;;;;;;;10.05;6.68;;;3.10;99.90;;;;;;5072867;28;20327;-75
2021/03/15 03:22:53;;;;;;;8.93;6.60;;;3.00;99.90;;;;;;5072828;28;20496;-75
2021/03/15 03:25:21;;;;;;;8.75;6.88;;;3.00;99.90;;;;;;5072665;28;20033;-75
2021/03/15 03:27:56;;;;;;;16.52;8.20;;;3.00;99.90;;;;;;5073004;28;20089;-76
2021/03/15 03:30:30;;;;;;;10.93;7.35;;;3.00;99.90;;;;;;5073072;28;20024;-76
2021/03/15 03:32:58;;;;;;;18.02;8.02;;;3.00;99.90;;;;;;5072947;28;20024;-76
2021/03/15 03:35:24;;;;;;;12.77;8.30;;;3.10;99.90;;;;;;5054749;28;20046;-75
2021/03/15 03:37:50;;;;;;;12.43;7.82;;;3.10;99.90;;;;;;5054677;28;20024;-76
2021/03/15 03:40:17;;;;;;;12.23;8.40;;;3.10;99.90;;;;;;5072660;28;20089;-75
2021/03/15 03:42:43;;;;;;;12.57;7.70;;;3.20;99.90;;;;;;5072545;28;20027;-75
2021/03/15 03:45:09;;;;;;;13.13;8.35;;;3.20;99.90;;;;;;5072573;28;20032;-76
2021/03/15 03:47:37;;;;;;;12.38;7.50;;;3.20;99.90;;;;;;5075224;28;20038;-76
2021/03/15 03:50:06;;;;;;;11.88;8.10;;;3.20;99.90;;;;;;5076585;28;20060;-75
2021/03/15 03:52:33;;;;;;;11.20;7.90;;;3.20;99.90;;;;;;5076362;28;20029;-76
2021/03/15 03:55:06;;;;;;;12.80;8.55;;;3.20;99.90;;;;;;5059540;28;20123;-75
2021/03/15 03:57:33;;;;;;;13.63;8.27;;;3.10;99.90;;;;;;5059594;28;20032;-75
2021/03/15 04:00:12;;;;;;;19.52;7.40;;;3.00;99.90;;;;;;5059249;28;20024;-76
2021/03/15 04:03:03;;;;;;;11.40;8.20;;;2.90;99.90;;;;;;5076261;28;20032;-76
2021/03/15 04:05:30;;;;;;;10.27;7.63;;;2.80;99.90;;;;;;5076312;28;20493;-74
2021/03/15 04:08:06;;;;;;;12.60;8.45;;;2.80;99.90;;;;;;5076189;28;20024;-76
2021/03/15 04:10:32;;;;;;;16.27;8.45;;;2.60;99.90;;;;;;5058188;28;20115;-76
2021/03/15 04:13:07;;;;;;;14.57;8.82;;;2.50;99.90;;;;;;5058105;28;20028;-75
2021/03/15 04:15:34;;;;;;;13.77;8.45;;;2.50;99.90;;;;;;5074794;28;20031;-76
2021/03/15 04:18:02;;;;;;;14.05;8.98;;;2.40;99.90;;;;;;5058365;28;20021;-76
2021/03/15 04:20:38;;;;;;;14.93;9.48;;;2.30;99.90;;;;;;5058874;28;20458;-76
2021/03/15 04:23:12;;;;;;;14.88;9.68;;;2.20;99.90;;;;;;5057916;28;20086;-77
2021/03/15 04:25:40;;;;;;;12.10;8.15;;;2.10;99.90;;;;;;5057881;28;20028;-76
2021/03/15 04:28:07;;;;;;;15.32;9.30;;;2.00;99.90;;;;;;5057863;28;20028;-75
2021/03/15 04:30:35;;;;;;;13.10;8.73;;;2.00;99.90;;;;;;5057814;28;20029;-75
2021/03/15 04:33:01;;;;;;;14.38;8.60;;;2.00;99.90;;;;;;5057751;28;20032;-75
2021/03/15 04:35:30;;;;;;;13.35;8.73;;;2.10;99.90;;;;;;5057687;28;20028;-76
2021/03/15 04:38:01;;;;;;;13.25;8.52;;;2.10;99.90;;;;;;5057807;28;20054;-75
2021/03/15 04:40:28;;;;;;;11.98;8.02;;;2.10;99.90;;;;;;5057558;28;20246;-76
2021/03/15 04:43:01;;;;;;;15.90;8.40;;;2.00;99.90;;;;;;5057767;28;20032;-75
2021/03/15 04:45:29;;;;;;;15.07;8.95;;;2.00;99.90;;;;;;5057741;28;20501;-76
2021/03/15 04:47:58;;;;;;;16.38;8.98;;;2.00;99.90;;;;;;5057601;28;20029;-75
2021/03/15 04:50:24;;;;;;;10.60;7.32;;;1.90;99.90;;;;;;5057783;28;20028;-76
2021/03/15 04:52:50;;;;;;;13.60;8.05;;;1.90;99.90;;;;;;5114104;22;20040;-74
2021/03/15 04:55:16;;;;;;;15.60;8.52;;;1.90;99.90;;;;;;5097728;28;20468;-74
2021/03/15 04:57:43;;;;;;;12.93;8.68;;;1.90;99.90;;;;;;5097316;28;20059;-75
2021/03/15 05:00:12;;;;;;;13.93;8.57;;;1.90;99.90;;;;;;5097359;28;20020;-74
2021/03/15 05:02:39;;;;;;;12.05;7.53;;;1.90;99.90;;;;;;5097586;28;20133;-74
2021/03/15 05:05:07;;;;;;;12.65;7.80;;;1.80;99.90;;;;;;5097681;28;20020;-74
2021/03/15 05:07:33;;;;;;;12.90;8.68;;;1.80;99.90;;;;;;5097913;28;20019;-74
2021/03/15 05:10:00;;;;;;;13.77;7.82;;;1.90;99.90;;;;;;5098141;28;20027;-74
2021/03/15 05:12:27;;;;;;;13.85;8.60;;;1.80;99.90;;;;;;5097940;28;20027;-74
2021/03/15 05:14:53;;;;;;;14.93;8.88;;;1.80;99.90;;;;;;5116607;28;20400;-75
2021/03/15 05:17:20;;;;;;;15.70;8.63;;;1.90;99.90;;;;;;5098071;28;20050;-75
2021/03/15 05:19:46;;;;;;;14.13;7.88;;;2.00;99.90;;;;;;5097683;28;20153;-74
2021/03/15 05:22:12;;;;;;;14.25;8.23;;;2.10;99.90;;;;;;5097852;28;20083;-74
2021/03/15 05:24:39;;;;;;;12.13;7.18;;;2.20;99.90;;;;;;5097547;28;20077;-75
2021/03/15 05:27:06;;;;;;;14.23;8.15;;;2.30;99.90;;;;;;5115999;28;20024;-75
2021/03/15 05:29:35;;;;;;;12.88;7.13;;;2.40;99.90;;;;;;5115643;28;20556;-75
2021/03/15 05:32:02;;;;;;;12.18;7.22;;;2.50;99.90;;;;;;5097040;28;20031;-75
2021/03/15 05:34:30;;;;;;;10.52;7.22;;;2.70;99.90;;;;;;5097125;28;20023;-75
2021/03/15 05:36:58;;;;;;;10.43;6.32;;;2.80;99.90;;;;;;5097120;28;20028;-74
2021/03/15 05:39:24;;;;;;;12.55;7.32;;;2.90;99.90;;;;;;5097089;28;20027;-75
2021/03/15 05:42:04;;;;;;;11.10;7.13;;;3.00;99.90;;;;;;5096931;28;20442;-73
2021/03/15 05:44:46;;;;;;;10.18;7.05;;;3.00;99.90;;;;;;5097062;28;20073;-75
2021/03/15 05:47:42;;;;;;;11.02;7.60;;;3.10;99.90;;;;;;5097129;28;20057;-75
2021/03/15 05:50:10;;;;;;;9.65;6.22;;;3.10;99.90;;;;;;5096982;28;20030;-76
2021/03/15 05:52:53;;;;;;;8.18;6.45;;;3.10;99.90;;;;;;5096838;28;20032;-75
2021/03/15 05:55:38;;;;;;;10.57;6.50;;;3.20;99.90;;;;;;5097031;28;20035;-75
2021/03/15 05:58:08;;;;;;;13.48;6.38;;;3.20;99.90;;;;;;5096870;28;20106;-75
2021/03/15 06:01:02;;;;;;;12.80;7.03;;;3.20;99.90;;;;;;5096855;28;20038;-75
2021/03/15 06:04:05;;;;;;;11.07;6.82;;;3.20;99.90;;;;;;5091157;28;20035;-75
2021/03/15 06:06:38;;;;;;;11.30;6.45;;;3.20;99.90;;;;;;5096693;28;20066;-75
2021/03/15 06:09:05;;;;;;;12.48;6.60;;;3.20;99.90;;;;;;5096590;28;20426;-75
2021/03/15 06:11:45;;;;;;;14.15;7.55;;;3.20;99.90;;;;;;5096294;28;20024;-75
2021/03/15 06:14:14;;;;;;;14.07;8.00;;;3.20;99.90;;;;;;5096503;28;20024;-75
2021/03/15 06:16:41;;;;;;;11.98;7.88;;;3.20;99.90;;;;;;5096588;28;20024;-75
2021/03/15 06:19:07;;;;;;;11.68;7.35;;;3.20;99.90;;;;;;5096341;28;20016;-75
2021/03/15 06:21:34;;;;;;;11.43;7.15;;;3.20;99.90;;;;;;5096321;28;20057;-75
2021/03/15 06:24:00;;;;;;;11.35;6.85;;;3.20;99.90;;;;;;5096453;28;20031;-75
2021/03/15 06:26:28;;;;;;;10.98;7.18;;;3.30;99.90;;;;;;5097001;28;20034;-75
2021/03/15 06:28:55;;;;;;;11.07;6.95;;;3.30;99.90;;;;;;5096365;28;20110;-74
2021/03/15 06:31:21;;;;;;;11.65;7.47;;;3.30;99.90;;;;;;5096425;28;20023;-75
2021/03/15 06:33:49;;;;;;;11.15;6.90;;;3.40;99.90;;;;;;5096453;28;20020;-75
2021/03/15 06:36:15;;;;;;;12.57;7.85;;;3.40;99.90;;;;;;5096386;28;20034;-75
2021/03/15 06:38:42;;;;;;;10.73;7.10;;;3.50;99.90;;;;;;5096027;28;20073;-76
2021/03/15 06:41:09;;;;;;;10.65;6.85;;;3.50;99.90;;;;;;5096016;28;20050;-75
2021/03/15 06:43:35;;;;;;;12.05;7.00;;;3.50;99.90;;;;;;5095764;28;20073;-75
2021/03/15 06:46:01;;;;;;;10.18;6.47;;;3.60;99.90;;;;;;5095952;28;20020;-75
2021/03/15 06:48:27;;;;;;;12.10;6.65;;;3.70;99.90;;;;;;5095838;28;20049;-75
2021/03/15 06:50:54;;;;;;;9.50;6.45;;;3.70;99.90;;;;;;5095655;28;20020;-75
2021/03/15 06:53:20;;;;;;;9.98;6.47;;;3.80;99.90;;;;;;5095810;28;20024;-75
2021/03/15 06:55:51;;;;;;;11.07;7.05;;;3.90;99.90;;;;;;5096051;28;20031;-75
2021/03/15 06:58:31;;;;;;;10.05;6.80;;;4.00;99.90;;;;;;5095960;28;20480;-75
2021/03/15 07:01:09;;;;;;;8.57;6.30;;;4.00;99.90;;;;;;5095789;28;20542;-76
2021/03/15 07:03:36;;;;;;;10.68;6.97;;;4.10;99.90;;;;;;5095666;28;20047;-75
2021/03/15 07:06:03;;;;;;;11.00;6.05;;;4.20;99.90;;;;;;5095517;28;20404;-76
2021/03/15 07:08:29;;;;;;;9.73;6.50;;;4.30;99.90;;;;;;5095573;28;20110;-75
2021/03/15 07:10:56;;;;;;;12.38;7.13;;;4.20;99.90;;;;;;5095461;28;20040;-75
2021/03/15 07:13:27;;;;;;;10.70;6.50;;;4.20;99.90;;;;;;5095449;28;20106;-76
2021/03/15 07:15:55;;;;;;;9.00;6.53;;;4.20;99.90;;;;;;5095862;28;20111;-76
2021/03/15 07:18:27;;;;;;;9.70;6.32;;;4.10;99.90;;;;;;5095579;28;20027;-76
2021/03/15 07:20:56;;;;;;;11.75;5.85;;;4.10;99.90;;;;;;5095286;28;20538;-76
2021/03/15 07:23:46;;;;;;;8.65;5.93;;;4.10;99.90;;;;;;5095465;28;20076;-76
2021/03/15 07:26:15;;;;;;;10.55;6.38;;;4.10;99.90;;;;;;5095724;28;20035;-76
2021/03/15 07:28:42;;;;;;;9.40;5.97;;;4.20;99.90;;;;;;5095405;28;20024;-76
2021/03/15 07:31:20;;;;;;;9.43;5.20;;;4.30;99.90;;;;;;5095266;28;20024;-76
2021/03/15 07:33:54;;;;;;;11.63;6.15;;;4.50;99.90;;;;;;5095348;28;20481;-76
2021/03/15 07:36:31;;;;;;;7.60;4.70;;;4.60;99.90;;;;;;5095462;28;20032;-76
2021/03/15 07:38:59;;;;;;;7.72;5.32;;;4.70;99.90;;;;;;5113514;28;20019;-76
2021/03/15 07:41:25;;;;;;;7.63;5.07;;;4.80;99.90;;;;;;5095216;28;20019;-76
2021/03/15 07:43:52;;;;;;;8.18;5.30;;;4.80;99.90;;;;;;5095316;28;20062;-76
2021/03/15 07:46:26;;;;;;;8.77;5.45;;;4.90;99.90;;;;;;5095298;28;20480;-76
2021/03/15 07:48:53;;;;;;;9.88;5.95;;;5.00;99.90;;;;;;5095186;28;20626;-75
2021/03/15 07:51:41;;;;;;;8.07;5.28;;;5.20;99.90;;;;;;5095027;28;20065;-76
2021/03/15 07:54:10;;;;;;;8.05;4.97;;;5.50;99.90;;;;;;5095124;28;20041;-74
2021/03/15 07:56:37;;;;;;;6.72;4.50;;;5.70;99.90;;;;;;5095130;28;20027;-76
2021/03/15 07:59:04;;;;;;;10.23;5.15;;;5.90;99.90;;;;;;5095110;28;20069;-75
2021/03/15 08:01:31;;;;;;;6.43;4.13;;;6.20;99.90;;;;;;5094940;28;20049;-76
2021/03/15 08:03:58;;;;;;;7.28;4.68;;;6.50;99.90;;;;;;5095590;28;20027;-76
2021/03/15 08:06:24;;;;;;;6.80;5.03;;;6.80;99.90;;;;;;5095193;28;20032;-76
2021/03/15 08:08:50;;;;;;;6.00;3.53;;;7.20;99.90;;;;;;5095315;28;20035;-76
2021/03/15 08:11:18;;;;;;;4.50;3.10;;;7.70;99.90;;;;;;5094688;28;20031;-76
2021/03/15 08:13:49;;;;;;;6.38;3.15;;;7.80;99.90;;;;;;5094857;28;20026;-76
2021/03/15 08:16:19;;;;;;;5.60;2.58;;;7.90;99.90;;;;;;5094812;28;20024;-76
2021/03/15 08:18:47;;;;;;;7.63;2.80;;;8.00;99.90;;;;;;5094995;28;20492;-76
2021/03/15 08:21:20;;;;;;;5.68;3.42;;;8.10;99.90;;;;;;5094970;28;20028;-76
2021/03/15 08:23:48;;;;;;;6.30;3.03;;;8.00;99.90;;;;;;5095098;28;20031;-76
2021/03/15 08:26:14;;;;;;;3.40;2.55;;;8.00;99.90;;;;;;5095056;28;20388;-76
2021/03/15 08:28:42;;;;;;;7.22;2.47;;;8.10;99.90;;;;;;5095638;28;20111;-76
2021/03/15 08:31:22;;;;;;;4.57;2.50;;;8.20;99.90;;;;;;5095195;28;20050;-76
2021/03/15 08:33:49;;;;;;;5.25;2.58;;;8.00;99.90;;;;;;5096755;28;20076;-76
2021/03/15 08:36:15;;;;;;;4.90;2.55;;;7.70;99.90;;;;;;5101019;28;20019;-75
2021/03/15 08:38:40;;;;;;;5.60;2.35;;;7.60;99.90;;;;;;5100655;28;20084;-76
2021/03/15 08:41:07;;;;;;;5.13;2.40;;;7.50;99.90;;;;;;5099115;28;20019;-76
2021/03/15 08:43:44;;;;;;;5.82;2.47;;;7.60;99.90;;;;;;5117966;28;20153;-76
2021/03/15 08:46:11;;;;;;;7.43;2.20;;;7.40;99.90;;;;;;5101406;28;20015;-75
2021/03/15 08:48:40;;;;;;;4.78;2.17;;;7.40;99.90;;;;;;5100920;28;20019;-76
2021/03/15 08:51:10;;;;;;;4.68;2.10;;;7.40;99.90;;;;;;5099251;28;20050;-76
2021/03/15 08:53:39;;;;;;;4.57;2.15;;;7.50;99.90;;;;;;5100496;28;20124;-76
2021/03/15 08:56:34;;;;;;;5.65;2.60;;;7.70;99.90;;;;;;5118133;28;20020;-75
2021/03/15 08:59:02;;;;;;;5.22;2.13;;;7.70;99.90;;;;;;5090596;28;20035;-76
2021/03/15 09:01:48;;;;;;;5.55;1.80;;;8.20;99.90;;;;;;5098370;28;20027;-75
2021/03/15 09:04:45;;;;;;;3.70;1.75;;;9.10;99.90;;;;;;5098885;28;20067;-76
2021/03/15 09:07:31;;;;;;;4.72;1.90;;;11.20;99.90;;;;;;5099098;28;20387;-76
2021/03/15 09:09:58;;;;;;;4.35;1.70;;;14.10;77.10;;;;;;5098896;28;20028;-76
2021/03/15 09:12:23;;;;;;;3.13;1.60;;;14.20;71.90;;;;;;5097991;28;20032;-76
2021/03/15 09:14:55;;;;;;;3.58;1.63;;;12.90;75.50;;;;;;5098290;28;20396;-76
2021/03/15 09:17:24;;;;;;;3.45;1.50;;;12.20;81.10;;;;;;5097689;28;20020;-76
2021/03/15 09:19:50;;;;;;;5.93;2.00;;;10.90;86.50;;;;;;5097517;28;20023;-76
2021/03/15 09:22:26;;;;;;;3.47;1.80;;;10.50;91.20;;;;;;5097289;28;20031;-76
2021/03/15 09:25:06;;;;;;;2.72;1.20;;;10.30;92.80;;;;;;5097297;28;20023;-76
2021/03/15 09:27:41;;;;;;;5.72;1.90;;;10.40;92.90;;;;;;5097385;28;20027;-76
2021/03/15 09:30:26;;;;;;;6.28;1.73;;;10.30;94.30;;;;;;5097243;28;20020;-76
2021/03/15 09:32:57;;;;;;;2.47;1.52;;;10.30;94.70;;;;;;5097169;28;20031;-76
2021/03/15 09:35:23;;;;;;;4.75;1.70;;;10.00;96.50;;;;;;5115571;28;20020;-76
2021/03/15 09:38:18;;;;;;;2.40;1.27;;;9.70;99.90;;;;;;5097102;28;20027;-76
2021/03/15 09:40:53;;;;;;;3.88;1.58;;;9.90;99.90;;;;;;5080265;28;20072;-76
2021/03/15 09:43:21;;;;;;;2.97;1.85;;;10.00;99.90;;;;;;5097068;28;20028;-75
2021/03/15 09:45:54;;;;;;;3.88;1.50;;;10.50;99.90;;;;;;5096827;28;20492;-76
2021/03/15 09:48:21;;;;;;;3.35;1.55;;;10.90;99.00;;;;;;5097027;28;20024;-76
2021/03/15 09:50:48;;;;;;;3.15;1.63;;;10.60;98.10;;;;;;5096996;28;20020;-76
2021/03/15 09:53:15;;;;;;;2.38;1.33;;;10.20;97.90;;;;;;5114520;28;20032;-76
2021/03/15 09:55:41;;;;;;;5.68;1.30;;;9.80;96.60;;;;;;5096778;28;20545;-76
2021/03/15 09:58:09;;;;;;;2.70;1.40;;;9.40;96.90;;;;;;5097197;28;20035;-76
2021/03/15 10:00:36;;;;;;;1.65;1.40;;;9.00;98.80;;;;;;5096938;28;20023;-76
2021/03/15 10:03:02;;;;;;;2.72;1.33;;;8.80;99.90;;;;;;5096704;28;20496;-76
2021/03/15 10:05:29;;;;;;;4.35;1.73;;;8.80;99.90;;;;;;5096737;28;20075;-76
2021/03/15 10:07:55;;;;;;;7.78;1.95;;;8.70;99.90;;;;;;5096797;28;20043;-76
2021/03/15 10:10:24;;;;;;;5.93;1.60;;;8.70;99.90;;;;;;5097236;28;20488;-76
2021/03/15 10:13:00;;;;;;;3.03;1.02;;;8.90;99.90;;;;;;5096475;28;20366;-76
2021/03/15 10:15:26;;;;;;;2.30;1.10;;;8.90;99.90;;;;;;5096771;28;20020;-76
2021/03/15 10:17:51;;;;;;;1.55;1.25;;;8.90;99.90;;;;;;5096502;28;20024;-76
2021/03/15 10:20:23;;;;;;;2.53;1.27;;;8.80;99.90;;;;;;5096377;28;20058;-76
2021/03/15 10:22:49;;;;;;;4.97;1.70;;;8.60;99.90;;;;;;5096223;28;20031;-76
2021/03/15 10:25:15;;;;;;;3.45;1.40;;;8.50;99.90;;;;;;5096337;28;20020;-76
2021/03/15 10:27:50;;;;;;;3.08;1.42;;;8.20;99.90;;;;;;5114473;28;20476;-76
2021/03/15 10:30:19;;;;;;;4.47;1.42;;;8.00;99.90;;;;;;5096329;28;20034;-76
2021/03/15 10:32:45;;;;;;;2.83;1.33;;;7.90;99.90;;;;;;5096009;28;20057;-76
2021/03/15 10:35:11;;;;;;;1.85;1.52;;;7.70;99.90;;;;;;5096124;28;20016;-76
2021/03/15 10:37:41;;;;;;;2.75;1.42;;;7.50;99.90;;;;;;5114382;28;20085;-76
2021/03/15 10:40:11;;;;;;;7.80;2.05;;;7.40;99.90;;;;;;5114271;28;20035;-76
2021/03/15 10:42:38;;;;;;;2.78;1.20;;;7.50;99.90;;;;;;5095910;28;20024;-76
2021/03/15 10:45:09;;;;;;;3.28;1.45;;;7.50;99.90;;;;;;5114229;28;20075;-75
2021/03/15 10:47:36;;;;;;;1.55;1.35;;;7.70;99.90;;;;;;5114687;28;20024;-75
2021/03/15 10:50:22;;;;;;;2.30;1.63;;;7.60;99.90;;;;;;5114413;28;20067;-75
2021/03/15 10:52:47;;;;;;;2.13;1.45;;;7.70;99.90;;;;;;5114637;23;20036;-76
2021/03/15 10:55:18;;;;;;;4.05;1.70;;;7.60;99.90;;;;;;5056545;28;20028;-77
2021/03/15 10:58:02;;;;;;;2.40;1.65;;;7.50;99.90;;;;;;5055820;28;20024;-78
2021/03/15 11:00:31;;;;;;;2.22;1.60;;;7.20;99.90;;;;;;5073671;28;20035;-78
2021/03/15 11:02:57;;;;;;;3.55;1.85;;;6.90;99.90;;;;;;5056651;28;20056;-77
2021/03/15 11:05:23;;;;;;;4.15;2.00;;;6.80;99.90;;;;;;5074286;28;20021;-77
2021/03/15 11:07:51;;;;;;;3.63;1.73;;;6.80;99.90;;;;;;5056263;28;20440;-77
2021/03/15 11:10:28;;;;;;;2.47;1.55;;;6.80;99.90;;;;;;5056341;28;20059;-77
2021/03/15 11:12:55;;;;;;;3.58;1.77;;;6.80;99.90;;;;;;5055870;28;20024;-77
2021/03/15 11:15:33;;;;;;;2.47;1.90;;;7.00;99.90;;;;;;5055824;28;20024;-78
2021/03/15 11:18:03;;;;;;;3.17;2.30;;;7.00;99.90;;;;;;5055908;28;20078;-77
2021/03/15 11:20:40;;;;;;;3.90;2.97;;;7.00;99.90;;;;;;5072685;28;20142;-77
2021/03/15 11:23:05;;;;;;;2.10;1.25;;;7.10;99.90;;;;;;5055936;28;20509;-77
2021/03/15 11:25:32;;;;;;;1.95;1.30;;;7.20;99.90;;;;;;5056561;28;20036;-78
2021/03/15 11:28:09;;;;;;;4.05;1.38;;;7.30;99.90;;;;;;5055939;28;20044;-77
2021/03/15 11:30:36;;;;;;;3.15;1.40;;;7.20;99.90;;;;;;5056055;28;20054;-77
2021/03/15 11:33:08;;;;;;;2.35;1.10;;;7.20;99.90;;;;;;5056214;28;20084;-76
2021/03/15 11:35:39;;;;;;;1.73;1.03;;;7.30;99.90;;;;;;5056121;28;20111;-78
2021/03/15 11:38:06;;;;;;;1.52;1.25;;;7.40;99.90;;;;;;5055950;28;20263;-79
2021/03/15 11:40:43;;;;;;;2.00;1.00;;;7.50;99.90;;;;;;5056014;28;20081;-77
2021/03/15 11:43:11;;;;;;;2.95;1.00;;;7.50;99.90;;;;;;5057418;28;20029;-77
2021/03/15 11:45:37;;;;;;;3.88;1.10;;;7.20;99.90;;;;;;5055881;28;20024;-76
2021/03/15 11:48:03;;;;;;;1.80;1.10;;;7.00;99.90;;;;;;5056140;28;20025;-77
2021/03/15 11:50:31;;;;;;;1.33;1.20;;;6.80;99.90;;;;;;5056384;28;20040;-77
2021/03/15 11:52:57;;;;;;;1.73;1.17;;;6.90;99.90;;;;;;5056085;28;20028;-78
2021/03/15 11:55:24;;;;;;;3.15;1.13;;;7.40;99.90;;;;;;5056754;28;20028;-77
2021/03/15 11:57:50;;;;;;;1.30;1.20;;;7.90;99.90;;;;;;5056729;28;20028;-78
2021/03/15 12:00:18;;;;;;;1.58;1.00;;;8.50;99.90;;;;;;5057062;28;20024;-77
2021/03/15 12:02:48;;;;;;;2.17;0.98;;;8.80;99.90;;;;;;5057594;28;20029;-77
2021/03/15 12:05:14;;;;;;;1.52;1.02;;;8.80;99.90;;;;;;5057291;28;20116;-77
2021/03/15 12:07:41;;;;;;;2.08;0.95;;;8.80;99.90;;;;;;5058560;28;20108;-77
2021/03/15 12:10:08;;;;;;;2.13;1.13;;;8.70;99.90;;;;;;5060383;28;20085;-77
2021/03/15 12:12:35;;;;;;;1.45;1.20;;;8.50;99.90;;;;;;5063262;28;20032;-78
2021/03/15 12:15:01;;;;;;;2.00;1.40;;;8.10;99.90;;;;;;5063455;28;20448;-77
2021/03/15 12:17:28;;;;;;;2.08;1.27;;;7.80;99.90;;;;;;5080338;28;20021;-77
2021/03/15 12:19:54;;;;;;;1.67;1.10;;;7.40;99.90;;;;;;5062947;28;20107;-77
2021/03/15 12:22:20;;;;;;;2.47;1.33;;;7.30;99.90;;;;;;5062495;28;20407;-77
2021/03/15 12:24:46;;;;;;;1.58;1.30;;;7.20;99.90;;;;;;5061640;28;20033;-77
2021/03/15 12:27:11;;;;;;;2.78;2.00;;;7.00;99.90;;;;;;5060976;28;20033;-77
2021/03/15 12:29:37;;;;;;;3.58;2.40;;;7.00;99.90;;;;;;5061973;28;20170;-77
2021/03/15 12:32:03;;;;;;;4.35;1.90;;;7.00;99.90;;;;;;5061404;28;20029;-77
2021/03/15 12:34:29;;;;;;;2.10;1.48;;;7.00;99.90;;;;;;5062204;28;20039;-78
2021/03/15 12:36:55;;;;;;;2.45;1.40;;;6.90;99.90;;;;;;5061579;28;20413;-78
2021/03/15 12:39:20;;;;;;;2.70;1.67;;;6.80;99.90;;;;;;5061347;28;20401;-78
2021/03/15 12:41:46;;;;;;;2.70;1.63;;;6.70;99.90;;;;;;5060925;28;20092;-78
2021/03/15 12:44:12;;;;;;;2.38;1.40;;;6.70;99.90;;;;;;5060287;28;20072;-78
2021/03/15 12:46:37;;;;;;;3.78;1.85;;;6.70;99.90;;;;;;5061106;28;20067;-78
2021/03/15 12:49:03;;;;;;;3.25;1.73;;;6.60;99.90;;;;;;5061175;28;20028;-78
2021/03/15 12:51:30;;;;;;;2.58;1.17;;;6.50;99.90;;;;;;5061544;28;20044;-78
2021/03/15 12:53:55;;;;;;;3.53;2.17;;;6.50;99.90;;;;;;5061565;28;20486;-78
2021/03/15 12:56:21;;;;;;;1.60;1.00;;;6.50;99.90;;;;;;5060987;28;20031;-78
2021/03/15 12:58:46;;;;;;;2.42;1.20;;;6.60;99.90;;;;;;5060843;28;20075;-79
2021/03/15 13:01:12;;;;;;;2.35;1.23;;;6.60;99.90;;;;;;5061254;28;20440;-79
2021/03/15 13:03:39;;;;;;;1.02;0.88;;;6.60;99.90;;;;;;5060779;28;20023;-78
2021/03/15 13:06:05;;;;;;;1.95;0.88;;;6.50;99.90;;;;;;5061874;28;20020;-79